Terminal Aerodrome Forecast
Issued by NWS

Home | Current Version | Previous Version | Text Only | Print | Product List | Glossary Off
Versions: 1 2 3 4 5 6 7 8 9 10 11 12 13 14 15 16 17 18

768
FTUS43 KGRB 251705 AAA
TAFCWA
TAF AMD
KCWA 251705Z 2517/2612 29013G21KT 6SM -SN SCT025 OVC035
      TEMPO 2517/2519 5SM -SN BKN025
     FM251900 29012G21KT P6SM SCT030
     FM252300 28007KT P6SM SKC
     FM260400 25006KT P6SM BKN100
     FM260800 24006KT P6SM BKN040 BKN070=

USA.gov is the U.S. government's official web portal to all federal, state and local government web resources and services.